createdAt,value
2023-04-26T00:00:10.076Z,1015.09
2023-04-26T00:01:10.053Z,1015.07
2023-04-26T00:02:10.064Z,1015.12
2023-04-26T00:03:10.368Z,1015.14
2023-04-26T00:04:10.357Z,1015.11
2023-04-26T00:05:10.298Z,1015.07
2023-04-26T00:06:10.048Z,1015.07
2023-04-26T00:07:10.028Z,1015.04
2023-04-26T00:08:09.971Z,1015.08
2023-04-26T00:09:09.972Z,1015.06
2023-04-26T00:10:09.949Z,1015.06
2023-04-26T00:11:09.960Z,1015.09
2023-04-26T00:12:09.923Z,1015.11
2023-04-26T00:13:09.964Z,1015.06
2023-04-26T00:14:09.905Z,1015.13
2023-04-26T00:15:09.910Z,1015.06
2023-04-26T00:16:09.930Z,1015.13
2023-04-26T00:17:09.876Z,1015.13
2023-04-26T00:18:09.903Z,1015.09
2023-04-26T00:19:09.855Z,1015.21
2023-04-26T00:20:09.866Z,1015.13
2023-04-26T00:21:09.836Z,1015.16
2023-04-26T00:22:09.813Z,1015.15
2023-04-26T00:23:10.825Z,1015.18
2023-04-26T00:24:09.794Z,1015.14
2023-04-26T00:25:09.818Z,1015.19
2023-04-26T00:26:09.774Z,1015.15
2023-04-26T00:27:09.792Z,1015.08
2023-04-26T00:28:11.789Z,1015.13
2023-04-26T00:29:09.754Z,1015.09
2023-04-26T00:30:09.736Z,1015.10
2023-04-26T00:31:09.787Z,1015.08
2023-04-26T00:32:09.760Z,1015.08
2023-04-26T00:33:09.836Z,1015.04
2023-04-26T00:34:09.693Z,1015.05
2023-04-26T00:35:09.687Z,1015.06
2023-04-26T00:36:09.672Z,1015.02
2023-04-26T00:37:09.661Z,1015.09
2023-04-26T00:38:09.678Z,1015.06
2023-04-26T00:39:09.676Z,1015.08
2023-04-26T00:40:09.618Z,1015.05
2023-04-26T00:41:09.625Z,1015.07
2023-04-26T00:42:09.595Z,1015.06
2023-04-26T00:43:09.590Z,1015.08
2023-04-26T00:44:09.611Z,1015.02
2023-04-26T00:45:09.567Z,1015.04
2023-04-26T00:46:09.619Z,1014.99
2023-04-26T00:47:09.577Z,1015.00
2023-04-26T00:48:09.573Z,1015.00
2023-04-26T00:49:09.555Z,1015.01
2023-04-26T00:50:09.523Z,1014.96
2023-04-26T00:51:09.535Z,1015.01
2023-04-26T00:52:09.487Z,1014.99
2023-04-26T00:53:09.489Z,1014.94
2023-04-26T00:54:09.474Z,1014.97
2023-04-26T00:55:09.497Z,1014.94
2023-04-26T00:56:09.550Z,1014.93
2023-04-26T00:57:09.459Z,1014.97
2023-04-26T00:58:09.428Z,1014.89
2023-04-26T00:59:09.422Z,1014.96
2023-04-26T01:00:09.418Z,1014.95
2023-04-26T01:01:09.455Z,1014.91
2023-04-26T01:02:09.457Z,1014.95
2023-04-26T01:03:09.501Z,1014.99
2023-04-26T01:04:09.487Z,1015.00
2023-04-26T01:05:09.403Z,1014.98
2023-04-26T01:06:09.345Z,1014.99
2023-04-26T01:07:09.373Z,1014.98
2023-04-26T01:08:09.328Z,1014.93
2023-04-26T01:09:09.309Z,1014.99
2023-04-26T01:10:09.295Z,1014.98
2023-04-26T01:11:09.310Z,1014.93
2023-04-26T01:12:09.295Z,1014.95
2023-04-26T01:13:09.285Z,1015.01
2023-04-26T01:14:09.252Z,1014.98
2023-04-26T01:15:09.242Z,1015.00
2023-04-26T01:16:09.267Z,1014.98
2023-04-26T01:17:09.356Z,1014.97
2023-04-26T01:18:09.210Z,1015.04
2023-04-26T01:19:09.229Z,1014.98
2023-04-26T01:20:09.211Z,1015.09
2023-04-26T01:21:09.179Z,1015.01
2023-04-26T01:22:09.150Z,1015.04
2023-04-26T01:23:09.166Z,1015.01
2023-04-26T01:24:09.150Z,1015.07
2023-04-26T01:25:09.162Z,1015.00
2023-04-26T01:26:09.136Z,1014.99
2023-04-26T01:27:09.099Z,1015.07
2023-04-26T01:28:09.087Z,1015.01
2023-04-26T01:29:09.098Z,1015.00
2023-04-26T01:30:10.057Z,1014.98
2023-04-26T01:31:09.089Z,1015.04
2023-04-26T01:32:09.054Z,1015.06
2023-04-26T01:33:09.128Z,1015.04
2023-04-26T01:34:09.032Z,1015.07
2023-04-26T01:35:10.518Z,1015.08
2023-04-26T01:36:09.969Z,1015.11
2023-04-26T01:37:09.010Z,1015.07
2023-04-26T01:38:08.998Z,1015.06
2023-04-26T01:39:17.049Z,1015.10
2023-04-26T01:40:08.972Z,1015.06
2023-04-26T01:41:08.965Z,1015.05
2023-04-26T01:42:08.957Z,1015.05
2023-04-26T01:43:08.934Z,1015.08
2023-04-26T01:44:08.929Z,1015.07
2023-04-26T01:45:08.968Z,1015.04
2023-04-26T01:46:08.932Z,1015.03
2023-04-26T01:47:08.895Z,1015.04
2023-04-26T01:48:09.006Z,1015.02
2023-04-26T01:49:09.054Z,1015.06
2023-04-26T01:50:08.863Z,1015.03
2023-04-26T01:51:08.862Z,1015.01
2023-04-26T01:52:08.824Z,1015.00
2023-04-26T01:53:08.825Z,1014.95
2023-04-26T01:54:08.811Z,1014.97
2023-04-26T01:55:08.847Z,1014.98
2023-04-26T01:56:08.811Z,1015.01
2023-04-26T01:57:08.795Z,1015.05
2023-04-26T01:58:08.782Z,1015.05
2023-04-26T01:59:08.753Z,1015.06
2023-04-26T02:00:09.091Z,1015.04
2023-04-26T02:01:08.796Z,1015.05
2023-04-26T02:02:08.762Z,1015.06
2023-04-26T02:03:08.765Z,1015.07
2023-04-26T02:04:08.710Z,1015.07
2023-04-26T02:05:08.769Z,1015.06
2023-04-26T02:06:08.680Z,1015.11
2023-04-26T02:07:08.699Z,1015.06
2023-04-26T02:08:08.653Z,1015.08
2023-04-26T02:09:08.744Z,1015.14
2023-04-26T02:10:08.769Z,1015.16
2023-04-26T02:11:08.640Z,1015.17
2023-04-26T02:12:08.820Z,1015.19
2023-04-26T02:13:08.620Z,1015.18
2023-04-26T02:14:08.612Z,1015.16
2023-04-26T02:15:08.590Z,1015.11
2023-04-26T02:16:08.607Z,1015.13
2023-04-26T02:17:08.556Z,1015.20
2023-04-26T02:18:08.617Z,1015.13
2023-04-26T02:19:08.553Z,1015.25
2023-04-26T02:20:08.522Z,1015.21
2023-04-26T02:21:08.552Z,1015.20
2023-04-26T02:22:08.507Z,1015.21
2023-04-26T02:23:08.509Z,1015.25
2023-04-26T02:24:09.510Z,1015.15
2023-04-26T02:25:08.486Z,1015.21
2023-04-26T02:26:08.461Z,1015.17
2023-04-26T02:27:08.501Z,1015.16
2023-04-26T02:28:08.452Z,1015.16
2023-04-26T02:29:08.483Z,1015.16
2023-04-26T02:30:08.440Z,1015.12
2023-04-26T02:31:08.475Z,1015.12
2023-04-26T02:32:08.400Z,1015.18
2023-04-26T02:33:08.625Z,1015.12
2023-04-26T02:34:08.380Z,1015.16
2023-04-26T02:35:08.408Z,1015.15
2023-04-26T02:36:08.358Z,1015.12
2023-04-26T02:37:08.361Z,1015.09
2023-04-26T02:38:08.349Z,1015.09
2023-04-26T02:39:08.350Z,1015.08
2023-04-26T02:40:08.309Z,1015.12
2023-04-26T02:41:08.376Z,1015.13
2023-04-26T02:42:08.295Z,1015.11
2023-04-26T02:43:08.343Z,1015.05
2023-04-26T02:44:08.296Z,1015.07
2023-04-26T02:45:08.276Z,1015.11
2023-04-26T02:46:08.247Z,1015.07
2023-04-26T02:47:10.816Z,1015.12
2023-04-26T02:48:08.279Z,1015.15
2023-04-26T02:49:09.670Z,1015.09
2023-04-26T02:50:08.202Z,1015.13
2023-04-26T02:51:08.184Z,1015.04
2023-04-26T02:52:08.225Z,1015.09
2023-04-26T02:53:08.207Z,1015.07
2023-04-26T02:54:08.185Z,1015.03
2023-04-26T02:55:08.145Z,1015.07
2023-04-26T02:56:08.160Z,1015.06
2023-04-26T02:57:08.128Z,1015.10
2023-04-26T02:58:08.110Z,1015.06
2023-04-26T02:59:08.128Z,1015.12
2023-04-26T03:00:08.095Z,1015.11
2023-04-26T03:01:08.152Z,1015.06
2023-04-26T03:02:08.195Z,1015.05
2023-04-26T03:03:08.180Z,1014.97
2023-04-26T03:04:08.178Z,1015.04
2023-04-26T03:05:08.073Z,1015.06
2023-04-26T03:06:08.021Z,1015.03
2023-04-26T03:07:08.020Z,1015.08
2023-04-26T03:08:08.019Z,1015.05
2023-04-26T03:09:08.696Z,1015.08
2023-04-26T03:10:08.003Z,1015.02
2023-04-26T03:11:07.965Z,1015.06
2023-04-26T03:12:08.048Z,1015.05
2023-04-26T03:13:07.958Z,1015.03
2023-04-26T03:14:07.937Z,1015.03
2023-04-26T03:15:07.966Z,1015.06
2023-04-26T03:16:08.005Z,1015.05
2023-04-26T03:17:07.903Z,1015.01
2023-04-26T03:18:09.427Z,1014.96
2023-04-26T03:19:07.965Z,1014.96
2023-04-26T03:20:07.889Z,1015.03
2023-04-26T03:21:07.870Z,1015.04
2023-04-26T03:22:07.859Z,1015.00
2023-04-26T03:23:07.879Z,1014.98
2023-04-26T03:24:07.831Z,1014.99
2023-04-26T03:25:07.839Z,1015.02
2023-04-26T03:26:07.809Z,1014.98
2023-04-26T03:27:07.806Z,1014.93
2023-04-26T03:28:07.790Z,1014.94
2023-04-26T03:29:07.794Z,1014.89
2023-04-26T03:30:07.792Z,1014.89
2023-04-26T03:31:07.749Z,1014.93
2023-04-26T03:32:07.817Z,1014.87
2023-04-26T03:33:07.907Z,1014.90
2023-04-26T03:34:07.749Z,1014.90
2023-04-26T03:35:07.763Z,1014.84
2023-04-26T03:36:07.686Z,1014.84
2023-04-26T03:37:07.858Z,1014.86
2023-04-26T03:38:07.719Z,1014.89
2023-04-26T03:39:08.676Z,1014.79
2023-04-26T03:40:08.612Z,1014.84
2023-04-26T03:41:07.681Z,1014.84
2023-04-26T03:42:07.662Z,1014.78
2023-04-26T03:43:07.645Z,1014.80
2023-04-26T03:44:07.730Z,1014.86
2023-04-26T03:45:07.612Z,1014.81
2023-04-26T03:46:07.686Z,1014.82
2023-04-26T03:47:07.698Z,1014.80
2023-04-26T03:48:07.752Z,1014.82
2023-04-26T03:49:07.621Z,1014.84
2023-04-26T03:50:07.952Z,1014.85
2023-04-26T03:51:07.860Z,1014.84
2023-04-26T03:52:07.527Z,1014.83
2023-04-26T03:53:07.519Z,1014.87
2023-04-26T03:54:07.509Z,1014.89
2023-04-26T03:55:07.507Z,1014.82
2023-04-26T03:56:07.532Z,1014.88
2023-04-26T03:57:07.459Z,1014.86
2023-04-26T03:58:07.460Z,1014.85
2023-04-26T03:59:07.476Z,1014.82
2023-04-26T04:00:07.476Z,1014.89
2023-04-26T04:01:07.445Z,1014.88
2023-04-26T04:02:07.478Z,1014.86
2023-04-26T04:03:07.741Z,1014.86
2023-04-26T04:04:07.785Z,1014.83
2023-04-26T04:05:07.430Z,1014.89
2023-04-26T04:06:07.378Z,1014.84
2023-04-26T04:07:07.457Z,1014.86
2023-04-26T04:08:07.399Z,1014.90
2023-04-26T04:09:08.304Z,1014.84
2023-04-26T04:10:07.408Z,1014.83
2023-04-26T04:11:07.321Z,1014.82
2023-04-26T04:12:07.317Z,1014.86
2023-04-26T04:13:07.306Z,1014.81
2023-04-26T04:14:07.307Z,1014.87
2023-04-26T04:15:07.290Z,1014.85
2023-04-26T04:16:07.310Z,1014.84
2023-04-26T04:17:07.260Z,1014.87
2023-04-26T04:18:07.365Z,1014.87
2023-04-26T04:19:08.535Z,1014.83
2023-04-26T04:20:07.234Z,1014.82
2023-04-26T04:21:07.223Z,1014.85
2023-04-26T04:22:07.221Z,1014.88
2023-04-26T04:23:08.030Z,1014.92
2023-04-26T04:24:07.199Z,1014.91
2023-04-26T04:25:07.175Z,1014.90
2023-04-26T04:26:07.312Z,1014.95
2023-04-26T04:27:07.162Z,1015.00
2023-04-26T04:28:07.159Z,1015.01
2023-04-26T04:29:07.526Z,1014.99
2023-04-26T04:30:07.101Z,1015.00
2023-04-26T04:31:07.175Z,1015.03
2023-04-26T04:32:08.552Z,1015.08
2023-04-26T04:33:07.165Z,1015.05
2023-04-26T04:34:07.068Z,1015.04
2023-04-26T04:35:07.074Z,1014.99
2023-04-26T04:36:07.095Z,1015.09
2023-04-26T04:37:07.035Z,1015.05
2023-04-26T04:38:07.047Z,1015.05
2023-04-26T04:39:07.041Z,1015.10
2023-04-26T04:40:07.869Z,1015.12
2023-04-26T04:41:07.037Z,1015.05
2023-04-26T04:42:07.032Z,1015.04
2023-04-26T04:43:07.027Z,1015.04
2023-04-26T04:44:06.952Z,1015.05
2023-04-26T04:45:07.010Z,1015.05
2023-04-26T04:46:06.986Z,1015.03
2023-04-26T04:47:06.970Z,1015.04
2023-04-26T04:48:06.956Z,1015.05
2023-04-26T04:49:08.369Z,1015.07
2023-04-26T04:50:06.885Z,1015.07
2023-04-26T04:51:06.901Z,1015.10
2023-04-26T04:52:06.922Z,1015.08
2023-04-26T04:53:06.912Z,1015.14
2023-04-26T04:54:06.860Z,1015.09
2023-04-26T04:55:06.849Z,1015.14
2023-04-26T04:56:06.880Z,1015.11
2023-04-26T04:57:06.817Z,1015.10
2023-04-26T04:58:07.825Z,1015.10
2023-04-26T04:59:06.928Z,1015.15
2023-04-26T05:00:06.820Z,1015.17
2023-04-26T05:01:06.767Z,1015.23
2023-04-26T05:02:06.799Z,1015.22
2023-04-26T05:03:07.741Z,1015.12
2023-04-26T05:04:07.114Z,1015.18
2023-04-26T05:05:06.923Z,1015.18
2023-04-26T05:06:06.742Z,1015.20
2023-04-26T05:07:06.908Z,1015.12
2023-04-26T05:08:06.710Z,1015.20
2023-04-26T05:09:07.449Z,1015.24
2023-04-26T05:10:06.716Z,1015.17
2023-04-26T05:11:06.689Z,1015.28
2023-04-26T05:12:06.661Z,1015.28
2023-04-26T05:13:06.645Z,1015.31
2023-04-26T05:14:06.660Z,1015.27
2023-04-26T05:15:06.624Z,1015.27
2023-04-26T05:16:06.647Z,1015.24
2023-04-26T05:17:06.625Z,1015.29
2023-04-26T05:18:06.638Z,1015.27
2023-04-26T05:19:09.567Z,1015.31
2023-04-26T05:20:06.569Z,1015.30
2023-04-26T05:21:06.553Z,1015.36
2023-04-26T05:22:06.582Z,1015.35
2023-04-26T05:23:06.534Z,1015.34
2023-04-26T05:24:06.538Z,1015.37
2023-04-26T05:25:06.529Z,1015.40
2023-04-26T05:26:06.523Z,1015.34
2023-04-26T05:27:06.522Z,1015.36
2023-04-26T05:28:06.520Z,1015.37
2023-04-26T05:29:06.475Z,1015.41
2023-04-26T05:30:06.494Z,1015.47
2023-04-26T05:31:06.458Z,1015.43
2023-04-26T05:32:06.473Z,1015.48
2023-04-26T05:33:06.490Z,1015.44
2023-04-26T05:34:06.442Z,1015.46
2023-04-26T05:35:06.416Z,1015.42
2023-04-26T05:36:06.402Z,1015.46
2023-04-26T05:37:06.532Z,1015.48
2023-04-26T05:38:06.411Z,1015.44
2023-04-26T05:39:06.393Z,1015.47
2023-04-26T05:40:06.381Z,1015.45
2023-04-26T05:41:06.373Z,1015.43
2023-04-26T05:42:06.331Z,1015.46
2023-04-26T05:43:06.356Z,1015.41
2023-04-26T05:44:06.325Z,1015.45
2023-04-26T05:45:06.332Z,1015.42
2023-04-26T05:46:06.356Z,1015.46
2023-04-26T05:47:06.286Z,1015.49
2023-04-26T05:48:06.323Z,1015.49
2023-04-26T05:49:06.256Z,1015.49
2023-04-26T05:50:06.283Z,1015.48
2023-04-26T05:51:06.283Z,1015.44
2023-04-26T05:52:06.222Z,1015.46
2023-04-26T05:53:06.235Z,1015.50
2023-04-26T05:54:06.215Z,1015.47
2023-04-26T05:55:07.721Z,1015.50
2023-04-26T05:56:06.212Z,1015.48
2023-04-26T05:57:06.305Z,1015.51
2023-04-26T05:58:06.161Z,1015.50
2023-04-26T05:59:06.161Z,1015.55
2023-04-26T06:00:06.195Z,1015.54
2023-04-26T06:01:06.148Z,1015.57
2023-04-26T06:02:06.151Z,1015.52
2023-04-26T06:03:07.342Z,1015.51
2023-04-26T06:04:06.702Z,1015.56
2023-04-26T06:05:06.528Z,1015.55
2023-04-26T06:06:06.103Z,1015.53
2023-04-26T06:07:06.083Z,1015.56
2023-04-26T06:08:07.533Z,1015.49
2023-04-26T06:09:06.109Z,1015.52
2023-04-26T06:10:06.031Z,1015.60
2023-04-26T06:11:06.079Z,1015.59
2023-04-26T06:12:06.975Z,1015.61
2023-04-26T06:13:07.439Z,1015.64
2023-04-26T06:14:14.268Z,1015.63
2023-04-26T06:15:07.010Z,1015.58
2023-04-26T06:16:07.432Z,1015.55
2023-04-26T06:17:06.379Z,1015.59
2023-04-26T06:18:07.462Z,1015.61
2023-04-26T06:19:07.389Z,1015.66
2023-04-26T06:20:06.801Z,1015.67
2023-04-26T06:21:07.413Z,1015.64
2023-04-26T06:22:07.369Z,1015.61
2023-04-26T06:23:07.879Z,1015.68
2023-04-26T06:24:05.939Z,1015.66
2023-04-26T06:25:07.323Z,1015.68
2023-04-26T06:26:05.895Z,1015.74
2023-04-26T06:27:07.331Z,1015.66
2023-04-26T06:28:05.830Z,1015.71
2023-04-26T06:29:05.974Z,1015.74
2023-04-26T06:30:05.844Z,1015.79
2023-04-26T06:31:06.022Z,1015.78
2023-04-26T06:32:06.302Z,1015.73
2023-04-26T06:33:06.019Z,1015.79
2023-04-26T06:34:08.422Z,1015.72
2023-04-26T06:35:05.762Z,1015.77
2023-04-26T06:36:06.586Z,1015.71
2023-04-26T06:37:05.764Z,1015.73
2023-04-26T06:38:05.875Z,1015.78
2023-04-26T06:39:06.380Z,1015.76
2023-04-26T06:40:05.737Z,1015.80
2023-04-26T06:41:05.705Z,1015.76
2023-04-26T06:42:05.756Z,1015.81
2023-04-26T06:43:05.737Z,1015.77
2023-04-26T06:44:05.705Z,1015.80
2023-04-26T06:45:05.666Z,1015.75
2023-04-26T06:46:05.655Z,1015.74
2023-04-26T06:47:05.707Z,1015.76
2023-04-26T06:48:05.670Z,1015.76
2023-04-26T06:49:07.070Z,1015.74
2023-04-26T06:50:05.926Z,1015.70
2023-04-26T06:51:05.570Z,1015.66
2023-04-26T06:52:05.568Z,1015.68
2023-04-26T06:53:05.608Z,1015.66
2023-04-26T06:54:05.575Z,1015.69
2023-04-26T06:55:05.590Z,1015.67
2023-04-26T06:56:05.530Z,1015.67
2023-04-26T06:57:05.772Z,1015.68
2023-04-26T06:58:05.546Z,1015.70
2023-04-26T06:59:06.357Z,1015.68
2023-04-26T07:00:06.947Z,1015.75
2023-04-26T07:01:06.936Z,1015.70
2023-04-26T07:02:07.039Z,1015.68
2023-04-26T07:03:05.699Z,1015.66
2023-04-26T07:04:05.593Z,1015.64
2023-04-26T07:05:05.571Z,1015.61
2023-04-26T07:06:05.472Z,1015.63
2023-04-26T07:07:05.416Z,1015.66
2023-04-26T07:08:05.381Z,1015.63
2023-04-26T07:09:05.405Z,1015.69
2023-04-26T07:10:05.422Z,1015.71
2023-04-26T07:11:05.378Z,1015.73
2023-04-26T07:12:05.503Z,1015.73
2023-04-26T07:13:06.799Z,1015.70
2023-04-26T07:14:05.449Z,1015.70
2023-04-26T07:15:05.323Z,1015.70
2023-04-26T07:16:05.359Z,1015.76
2023-04-26T07:17:06.246Z,1015.71
2023-04-26T07:18:05.333Z,1015.71
2023-04-26T07:19:06.114Z,1015.71
2023-04-26T07:20:05.300Z,1015.68
2023-04-26T07:21:06.706Z,1015.65
2023-04-26T07:22:05.226Z,1015.63
2023-04-26T07:23:05.274Z,1015.63
2023-04-26T07:24:05.203Z,1015.61
2023-04-26T07:25:05.447Z,1015.64
2023-04-26T07:26:05.468Z,1015.64
2023-04-26T07:27:05.412Z,1015.64
2023-04-26T07:28:05.169Z,1015.61
2023-04-26T07:29:06.613Z,1015.67
2023-04-26T07:30:05.143Z,1015.59
2023-04-26T07:31:08.775Z,1015.61
2023-04-26T07:32:05.162Z,1015.59
2023-04-26T07:33:06.722Z,1015.61
2023-04-26T07:34:05.153Z,1015.62
2023-04-26T07:35:05.484Z,1015.53
2023-04-26T07:36:05.096Z,1015.61
2023-04-26T07:37:05.071Z,1015.60
2023-04-26T07:38:06.327Z,1015.55
2023-04-26T07:39:05.045Z,1015.60
2023-04-26T07:40:05.041Z,1015.58
2023-04-26T07:41:05.052Z,1015.58
2023-04-26T07:42:05.044Z,1015.67
2023-04-26T07:43:05.039Z,1015.64
2023-04-26T07:44:05.000Z,1015.60
2023-04-26T07:45:04.986Z,1015.65
2023-04-26T07:46:05.381Z,1015.64
2023-04-26T07:47:04.968Z,1015.70
2023-04-26T07:48:05.040Z,1015.67
2023-04-26T07:49:05.756Z,1015.67
2023-04-26T07:50:04.967Z,1015.66
2023-04-26T07:51:04.936Z,1015.64
2023-04-26T07:52:04.902Z,1015.66
2023-04-26T07:53:04.897Z,1015.63
2023-04-26T07:54:05.843Z,1015.60
2023-04-26T07:55:05.764Z,1015.60
2023-04-26T07:56:06.317Z,1015.57
2023-04-26T07:57:04.975Z,1015.60
2023-04-26T07:58:05.794Z,1015.63
2023-04-26T07:59:04.840Z,1015.59
2023-04-26T08:00:04.838Z,1015.62
2023-04-26T08:01:04.900Z,1015.64
2023-04-26T08:02:04.854Z,1015.59
2023-04-26T08:03:04.914Z,1015.63
2023-04-26T08:04:05.011Z,1015.61
2023-04-26T08:05:04.907Z,1015.59
2023-04-26T08:06:05.748Z,1015.56
2023-04-26T08:07:04.809Z,1015.57
2023-04-26T08:08:04.708Z,1015.58
2023-04-26T08:09:04.877Z,1015.61
2023-04-26T08:10:04.689Z,1015.55
2023-04-26T08:11:04.911Z,1015.54
2023-04-26T08:12:04.926Z,1015.56
2023-04-26T08:13:05.449Z,1015.48
2023-04-26T08:14:06.116Z,1015.53
2023-04-26T08:15:04.654Z,1015.54
2023-04-26T08:16:04.628Z,1015.53
2023-04-26T08:17:04.719Z,1015.59
2023-04-26T08:18:04.711Z,1015.52
2023-04-26T08:19:04.634Z,1015.51
2023-04-26T08:20:04.615Z,1015.59
2023-04-26T08:21:04.577Z,1015.50
2023-04-26T08:22:04.564Z,1015.55
2023-04-26T08:23:04.572Z,1015.50
2023-04-26T08:24:05.491Z,1015.52
2023-04-26T08:25:04.598Z,1015.54
2023-04-26T08:26:04.572Z,1015.47
2023-04-26T08:27:04.547Z,1015.42
2023-04-26T08:28:06.000Z,1015.47
2023-04-26T08:29:04.524Z,1015.45
2023-04-26T08:30:04.561Z,1015.47
2023-04-26T08:31:04.526Z,1015.44
2023-04-26T08:32:04.461Z,1015.48
2023-04-26T08:33:04.517Z,1015.52
2023-04-26T08:34:04.475Z,1015.57
2023-04-26T08:35:05.384Z,1015.59
2023-04-26T08:36:04.483Z,1015.55
2023-04-26T08:37:04.401Z,1015.58
2023-04-26T08:38:04.460Z,1015.60
2023-04-26T08:39:04.515Z,1015.55
2023-04-26T08:40:04.366Z,1015.65
2023-04-26T08:41:04.352Z,1015.63
2023-04-26T08:42:04.337Z,1015.63
2023-04-26T08:43:04.491Z,1015.65
2023-04-26T08:44:04.354Z,1015.63
2023-04-26T08:45:04.329Z,1015.62
2023-04-26T08:46:04.550Z,1015.67
2023-04-26T08:47:04.308Z,1015.69
2023-04-26T08:48:04.871Z,1015.62
2023-04-26T08:49:04.592Z,1015.58
2023-04-26T08:50:04.276Z,1015.63
2023-04-26T08:51:05.737Z,1015.65
2023-04-26T08:52:04.223Z,1015.61
2023-04-26T08:53:04.251Z,1015.65
2023-04-26T08:54:04.937Z,1015.60
2023-04-26T08:55:05.218Z,1015.64
2023-04-26T08:56:04.368Z,1015.58
2023-04-26T08:57:05.128Z,1015.57
2023-04-26T08:58:04.195Z,1015.53
2023-04-26T08:59:04.155Z,1015.58
2023-04-26T09:00:04.155Z,1015.53
2023-04-26T09:01:04.158Z,1015.60
2023-04-26T09:02:04.186Z,1015.53
2023-04-26T09:03:04.228Z,1015.55
2023-04-26T09:04:04.331Z,1015.58
2023-04-26T09:05:04.306Z,1015.60
2023-04-26T09:06:04.503Z,1015.56
2023-04-26T09:07:04.097Z,1015.58
2023-04-26T09:08:04.080Z,1015.57
2023-04-26T09:09:04.662Z,1015.62
2023-04-26T09:10:04.072Z,1015.65
2023-04-26T09:11:04.041Z,1015.66
2023-04-26T09:12:04.019Z,1015.72
2023-04-26T09:13:04.096Z,1015.73
2023-04-26T09:14:03.996Z,1015.73
2023-04-26T09:15:04.970Z,1015.68
2023-04-26T09:16:05.108Z,1015.68
2023-04-26T09:17:03.974Z,1015.68
2023-04-26T09:18:04.034Z,1015.65
2023-04-26T09:19:03.958Z,1015.60
2023-04-26T09:20:05.317Z,1015.72
2023-04-26T09:21:03.939Z,1015.72
2023-04-26T09:22:03.906Z,1015.66
2023-04-26T09:23:03.893Z,1015.70
2023-04-26T09:24:03.888Z,1015.62
2023-04-26T09:25:03.930Z,1015.60
2023-04-26T09:26:03.866Z,1015.60
2023-04-26T09:27:03.887Z,1015.63
2023-04-26T09:28:05.804Z,1015.66
2023-04-26T09:29:04.006Z,1015.68
2023-04-26T09:30:03.852Z,1015.68
2023-04-26T09:31:04.842Z,1015.66
2023-04-26T09:32:03.797Z,1015.66
2023-04-26T09:33:03.854Z,1015.57
2023-04-26T09:34:03.792Z,1015.56
2023-04-26T09:35:04.728Z,1015.60
2023-04-26T09:36:03.768Z,1015.63
2023-04-26T09:37:03.750Z,1015.60
2023-04-26T09:38:10.472Z,1015.57
2023-04-26T09:39:04.721Z,1015.55
2023-04-26T09:40:03.710Z,1015.54
2023-04-26T09:41:03.726Z,1015.56
2023-04-26T09:42:03.692Z,1015.45
2023-04-26T09:43:03.728Z,1015.44
2023-04-26T09:44:03.656Z,1015.41
2023-04-26T09:45:03.667Z,1015.47
2023-04-26T09:46:03.642Z,1015.49
2023-04-26T09:47:03.763Z,1015.46
2023-04-26T09:48:03.625Z,1015.44
2023-04-26T09:49:03.675Z,1015.44
2023-04-26T09:50:03.585Z,1015.38
2023-04-26T09:51:03.612Z,1015.42
2023-04-26T09:52:03.567Z,1015.40
2023-04-26T09:53:03.561Z,1015.35
2023-04-26T09:54:03.572Z,1015.41
2023-04-26T09:55:03.567Z,1015.44
2023-04-26T09:56:03.745Z,1015.35
2023-04-26T09:57:03.539Z,1015.42
2023-04-26T09:58:03.880Z,1015.38
2023-04-26T09:59:03.572Z,1015.36
2023-04-26T10:00:03.470Z,1015.39
2023-04-26T10:01:03.575Z,1015.39
2023-04-26T10:02:04.457Z,1015.41
2023-04-26T10:03:04.974Z,1015.40
2023-04-26T10:04:03.464Z,1015.39
2023-04-26T10:05:03.493Z,1015.38
2023-04-26T10:06:03.416Z,1015.42
2023-04-26T10:07:04.289Z,1015.37
2023-04-26T10:08:03.404Z,1015.42
2023-04-26T10:09:03.935Z,1015.33
2023-04-26T10:10:03.363Z,1015.34
2023-04-26T10:11:03.379Z,1015.40
2023-04-26T10:12:03.436Z,1015.37
2023-04-26T10:13:03.345Z,1015.39
2023-04-26T10:14:03.334Z,1015.39
2023-04-26T10:15:04.268Z,1015.39
2023-04-26T10:16:03.400Z,1015.36
2023-04-26T10:17:03.401Z,1015.39
2023-04-26T10:18:03.329Z,1015.38
2023-04-26T10:19:04.113Z,1015.38
2023-04-26T10:20:03.270Z,1015.39
2023-04-26T10:21:03.249Z,1015.38
2023-04-26T10:22:03.233Z,1015.40
2023-04-26T10:23:03.231Z,1015.41
2023-04-26T10:24:04.700Z,1015.35
2023-04-26T10:25:03.232Z,1015.39
2023-04-26T10:26:03.235Z,1015.33
2023-04-26T10:27:04.148Z,1015.26
2023-04-26T10:28:04.656Z,1015.32
2023-04-26T10:29:03.612Z,1015.24
2023-04-26T10:30:03.947Z,1015.24
2023-04-26T10:31:03.178Z,1015.25
2023-04-26T10:32:03.224Z,1015.29
2023-04-26T10:33:03.695Z,1015.28
2023-04-26T10:34:03.111Z,1015.28
2023-04-26T10:35:05.055Z,1015.22
2023-04-26T10:36:03.083Z,1015.29
2023-04-26T10:37:03.157Z,1015.26
2023-04-26T10:38:04.558Z,1015.23
2023-04-26T10:39:03.092Z,1015.24
2023-04-26T10:40:03.039Z,1015.27
2023-04-26T10:41:03.030Z,1015.26
2023-04-26T10:42:03.027Z,1015.26
2023-04-26T10:43:04.121Z,1015.20
2023-04-26T10:44:03.043Z,1015.26
2023-04-26T10:45:03.007Z,1015.27
2023-04-26T10:46:03.007Z,1015.25
2023-04-26T10:47:03.051Z,1015.19
2023-04-26T10:48:02.990Z,1015.19
2023-04-26T10:49:02.954Z,1015.12
2023-04-26T10:50:05.086Z,1015.21
2023-04-26T10:51:02.939Z,1015.17
2023-04-26T10:52:02.911Z,1015.21
2023-04-26T10:53:02.929Z,1015.18
2023-04-26T10:54:02.917Z,1015.23
2023-04-26T10:55:02.880Z,1015.14
2023-04-26T10:56:02.877Z,1015.13
2023-04-26T10:57:02.863Z,1015.20
2023-04-26T10:58:03.085Z,1015.22
2023-04-26T10:59:04.915Z,1015.19
2023-04-26T11:00:03.851Z,1015.18
2023-04-26T11:01:02.912Z,1015.16
2023-04-26T11:02:02.851Z,1015.16
2023-04-26T11:03:02.886Z,1015.16
2023-04-26T11:04:02.837Z,1015.12
2023-04-26T11:05:02.814Z,1015.13
2023-04-26T11:06:02.789Z,1015.09
2023-04-26T11:07:02.740Z,1015.10
2023-04-26T11:08:02.727Z,1015.14
2023-04-26T11:09:02.896Z,1015.16
2023-04-26T11:10:02.697Z,1015.20
2023-04-26T11:11:02.713Z,1015.21
2023-04-26T11:12:02.693Z,1015.14
2023-04-26T11:13:02.678Z,1015.17
2023-04-26T11:14:03.483Z,1015.21
2023-04-26T11:15:03.624Z,1015.16
2023-04-26T11:16:02.733Z,1015.16
2023-04-26T11:17:02.674Z,1015.20
2023-04-26T11:18:03.037Z,1015.18
2023-04-26T11:19:02.602Z,1015.12
2023-04-26T11:20:02.622Z,1015.17
2023-04-26T11:21:02.599Z,1015.13
2023-04-26T11:22:02.598Z,1015.10
2023-04-26T11:23:02.718Z,1015.20
2023-04-26T11:24:02.557Z,1015.10
2023-04-26T11:25:02.577Z,1015.18
2023-04-26T11:26:02.533Z,1015.10
2023-04-26T11:27:02.530Z,1015.07
2023-04-26T11:28:02.517Z,1015.08
2023-04-26T11:29:02.584Z,1015.12
2023-04-26T11:30:02.501Z,1015.10
2023-04-26T11:31:02.554Z,1015.06
2023-04-26T11:32:02.499Z,1015.05
2023-04-26T11:33:02.503Z,1015.05
2023-04-26T11:34:02.463Z,1015.09
2023-04-26T11:35:03.405Z,1015.04
2023-04-26T11:36:02.485Z,1014.98
2023-04-26T11:37:02.416Z,1014.96
2023-04-26T11:38:02.401Z,1014.96
2023-04-26T11:39:02.508Z,1014.90
2023-04-26T11:40:02.396Z,1014.90
2023-04-26T11:41:02.401Z,1014.94
2023-04-26T11:42:02.362Z,1014.92
2023-04-26T11:43:02.409Z,1014.90
2023-04-26T11:44:02.415Z,1014.90
2023-04-26T11:45:02.327Z,1014.97
2023-04-26T11:46:02.300Z,1014.91
2023-04-26T11:47:03.400Z,1014.92
2023-04-26T11:48:02.342Z,1014.91
2023-04-26T11:49:02.312Z,1014.92
2023-04-26T11:50:02.280Z,1014.89
2023-04-26T11:51:02.250Z,1014.86
2023-04-26T11:52:02.248Z,1014.86
2023-04-26T11:53:02.294Z,1014.83
2023-04-26T11:54:02.246Z,1014.88
2023-04-26T11:55:03.326Z,1014.86
2023-04-26T11:56:02.215Z,1014.83
2023-04-26T11:57:02.184Z,1014.80
2023-04-26T11:58:02.224Z,1014.85
2023-04-26T11:59:04.063Z,1014.85
2023-04-26T12:00:02.152Z,1014.86
2023-04-26T12:01:02.172Z,1014.89
2023-04-26T12:02:02.175Z,1014.91
2023-04-26T12:03:03.264Z,1014.93
2023-04-26T12:04:02.231Z,1014.93
2023-04-26T12:05:02.397Z,1014.92